createdAt,value
2023-09-17T10:10:02.082Z,23.84
2023-09-17T10:20:13.474Z,23.93
2023-09-17T10:30:16.236Z,23.92
2023-09-17T10:40:19.638Z,23.91
2023-09-17T10:50:31.244Z,23.84
2023-09-17T11:00:36.790Z,23.99
2023-09-17T11:10:43.544Z,23.95
2023-09-17T11:20:54.785Z,24.02
2023-09-17T11:30:59.617Z,24.01
2023-09-17T11:41:07.727Z,23.93
2023-09-17T11:51:17.763Z,24.01
2023-09-17T12:01:20.865Z,24.00
2023-09-17T12:11:37.789Z,24.16
2023-09-17T12:21:42.703Z,24.22
2023-09-17T12:31:53.789Z,24.23
2023-09-17T12:41:58.682Z,24.24
2023-09-17T12:52:06.492Z,24.20
2023-09-17T13:02:18.568Z,24.22
2023-09-17T13:12:20.091Z,24.31
2023-09-17T13:32:50.598Z,23.70
2023-09-17T13:42:52.251Z,23.83
2023-09-17T13:52:53.721Z,23.95
2023-09-17T14:02:58.919Z,24.02
2023-09-17T14:13:10.287Z,24.11
2023-09-17T14:23:12.698Z,24.12
2023-09-17T14:33:24.510Z,24.15
2023-09-17T14:43:28.052Z,24.17
2023-09-17T14:53:36.998Z,24.20
2023-09-17T15:03:49.877Z,24.21
2023-09-17T15:24:20.261Z,24.50
2023-09-17T15:34:22.005Z,24.49
2023-09-17T15:44:29.679Z,24.47
2023-09-17T15:54:38.645Z,24.44
2023-09-17T16:04:47.680Z,24.45
2023-09-17T16:14:51.696Z,24.41
2023-09-17T16:24:59.801Z,24.44
2023-09-17T16:35:09.745Z,24.41
2023-09-17T16:45:17.446Z,24.40
2023-09-17T16:55:25.674Z,24.42
2023-09-17T17:05:34.641Z,24.40
2023-09-17T17:15:47.858Z,24.41
2023-09-17T17:25:50.740Z,24.40
2023-09-17T17:35:58.085Z,24.38
2023-09-17T17:46:07.698Z,24.37
2023-09-17T17:56:09.065Z,24.36
2023-09-17T18:06:10.409Z,24.33
2023-09-17T18:16:11.806Z,24.33
2023-09-17T18:26:13.211Z,24.25
2023-09-17T18:36:14.569Z,24.26
2023-09-17T18:46:15.919Z,24.24
2023-09-17T18:56:17.368Z,24.21
2023-09-17T19:06:18.724Z,24.15
2023-09-17T19:26:36.317Z,24.17
2023-09-17T19:36:39.122Z,24.12
2023-09-17T19:46:40.525Z,24.22
2023-09-17T19:56:41.957Z,24.16
2023-09-17T20:06:53.885Z,24.17
2023-09-17T20:16:56.792Z,24.17
2023-09-17T20:26:58.191Z,24.12
2023-09-17T20:36:59.530Z,24.14
2023-09-17T20:47:00.887Z,24.06
2023-09-17T20:57:02.231Z,24.14
2023-09-17T21:07:03.581Z,24.12
2023-09-17T21:17:04.916Z,24.14
2023-09-17T21:27:06.276Z,24.10
2023-09-17T21:37:07.576Z,24.08
2023-09-17T21:47:08.921Z,24.10
2023-09-17T21:57:10.272Z,24.09
2023-09-17T22:07:11.580Z,24.09
2023-09-17T22:17:12.927Z,24.10
2023-09-17T22:27:15.977Z,24.09
2023-09-17T22:37:19.744Z,24.06
2023-09-17T22:47:21.091Z,23.96
2023-09-17T22:57:22.437Z,24.04
2023-09-17T23:07:23.764Z,24.03
2023-09-17T23:17:25.176Z,24.01
2023-09-17T23:27:26.666Z,23.88
2023-09-17T23:37:27.988Z,24.01
2023-09-17T23:47:29.456Z,23.98
2023-09-17T23:57:30.867Z,24.00
